Time;durP1;ratioP1;P1;durP2;ratioP2;P2;SDS_P1;SDS_P2;PMS_P1;PMS_P2;Temp;Humidity;BMP_temperature;BMP_pressure;BME280_temperature;BME280_humidity;BME280_pressure;Samples;Min_cycle;Max_cycle;Signal;HPM_P1;HPM_P2
2022/03/01 00:00:45;;;;;;;;;65.00;50.25;;;;;6.66;53.11;102571.50;2393862;28;46318;-82
2022/03/01 00:01:56;;;;;;;;;60.50;47.00;;;;;6.66;53.18;102570.63;2393687;28;44853;-82
2022/03/01 00:03:07;;;;;;;;;61.75;49.50;;;;;6.66;52.81;102568.88;2393756;28;45573;-82
2022/03/01 00:04:17;;;;;;;;;60.00;49.50;;;;;6.69;53.32;102578.50;2393960;28;45163;-82
2022/03/01 00:05:28;;;;;;;;;55.25;45.50;;;;;6.68;53.26;102568.88;2393589;28;46139;-82
2022/03/01 00:06:38;;;;;;;;;61.75;49.00;;;;;6.67;53.43;102557.56;2393527;28;45363;-82
2022/03/01 00:07:48;;;;;;;;;56.25;44.75;;;;;6.67;53.03;102561.94;2399013;28;48065;-83
2022/03/01 00:08:59;;;;;;;;;64.00;49.00;;;;;6.67;53.10;102557.56;2393447;28;44698;-82
2022/03/01 00:10:10;;;;;;;;;62.25;47.00;;;;;6.68;52.82;102559.31;2393380;28;46468;-82
2022/03/01 00:11:22;;;;;;;;;60.50;49.00;;;;;6.68;52.97;102558.44;2393535;28;45537;-83
2022/03/01 00:12:32;;;;;;;;;65.75;49.25;;;;;6.68;53.29;102561.94;2393892;28;46479;-82
2022/03/01 00:13:42;;;;;;;;;61.50;47.50;;;;;6.67;53.06;102565.38;2397925;28;45459;-82
2022/03/01 00:14:53;;;;;;;;;61.75;48.00;;;;;6.67;53.13;102559.31;2397073;28;46165;-82
2022/03/01 00:16:04;;;;;;;;;61.00;49.25;;;;;6.67;53.66;102562.78;2393860;28;44548;-82
2022/03/01 00:17:14;;;;;;;;;57.50;48.00;;;;;6.64;53.44;102557.53;2394971;28;45373;-82
2022/03/01 00:18:24;;;;;;;;;62.25;48.00;;;;;6.63;53.22;102561.00;2395384;28;45158;-82
2022/03/01 00:19:35;;;;;;;;;66.75;48.25;;;;;6.63;53.68;102561.88;2393688;28;46287;-82
2022/03/01 00:20:45;;;;;;;;;63.25;48.50;;;;;6.63;53.27;102561.00;2392651;28;45433;-82
2022/03/01 00:21:57;;;;;;;;;53.75;44.00;;;;;6.60;53.36;102558.34;2392669;28;46264;-82
2022/03/01 00:23:07;;;;;;;;;60.25;48.75;;;;;6.62;53.46;102564.44;2393779;28;45285;-82
2022/03/01 00:24:17;;;;;;;;;63.50;50.25;;;;;6.61;53.68;102562.72;2393051;28;47982;-83
2022/03/01 00:25:28;;;;;;;;;60.25;46.50;;;;;6.61;53.08;102563.59;2393097;28;45318;-82
2022/03/01 00:26:38;;;;;;;;;64.75;49.25;;;;;6.61;53.24;102562.72;2398925;28;45431;-82
2022/03/01 00:27:49;;;;;;;;;63.50;49.75;;;;;6.58;53.17;102560.94;2399052;28;45420;-82
2022/03/01 00:28:59;;;;;;;;;62.50;46.75;;;;;6.57;53.78;102561.78;2392705;28;47189;-82
2022/03/01 00:30:10;;;;;;;;;68.00;50.25;;;;;6.57;53.89;102563.53;2392892;28;45297;-82
2022/03/01 00:31:21;;;;;;;;;67.00;48.75;;;;;6.56;53.55;102561.78;2402289;28;47153;-82
2022/03/01 00:32:31;;;;;;;;;60.50;48.25;;;;;6.53;53.32;102554.78;2400000;28;45242;-82
2022/03/01 00:33:42;;;;;;;;;64.25;48.75;;;;;6.55;53.47;102557.38;2393547;28;46476;-83
2022/03/01 00:34:52;;;;;;;;;62.00;48.50;;;;;6.52;53.74;102550.38;2393646;28;44614;-82
2022/03/01 00:36:03;;;;;;;;;57.50;46.75;;;;;6.52;54.00;102551.28;2393126;28;45330;-82
2022/03/01 00:37:13;;;;;;;;;59.75;48.00;;;;;6.51;53.87;102552.16;2393664;28;44618;-82
2022/03/01 00:38:24;;;;;;;;;63.50;48.50;;;;;6.52;53.87;102555.63;2393522;28;45197;-82
2022/03/01 00:39:34;;;;;;;;;60.75;48.75;;;;;6.50;53.92;102549.50;2393792;28;45127;-83
2022/03/01 00:40:45;;;;;;;;;61.00;47.75;;;;;6.47;53.86;102542.50;2393485;28;46405;-83
2022/03/01 00:41:55;;;;;;;;;63.00;50.25;;;;;6.46;54.07;102542.47;2393744;28;45207;-83
2022/03/01 00:43:05;;;;;;;;;63.00;49.00;;;;;6.45;54.00;102541.59;2393431;28;45436;-79
2022/03/01 00:44:16;;;;;;;;;62.00;48.25;;;;;6.44;53.80;102537.25;2393639;28;45274;-79
2022/03/01 00:45:26;;;;;;;;;63.00;49.25;;;;;6.43;53.88;102547.66;2393388;28;45535;-79
2022/03/01 00:46:37;;;;;;;;;56.50;42.50;;;;;6.42;54.06;102544.16;2401982;28;45288;-79
2022/03/01 00:47:47;;;;;;;;;64.00;48.25;;;;;6.39;54.33;102546.75;2393654;28;45315;-79
2022/03/01 00:48:58;;;;;;;;;63.00;46.50;;;;;6.39;54.06;102549.38;2393602;28;45233;-79
2022/03/01 00:50:09;;;;;;;;;65.00;49.50;;;;;6.36;54.15;102544.97;2393154;28;45266;-79
2022/03/01 00:51:19;;;;;;;;;59.75;47.25;;;;;6.36;54.30;102542.34;2392530;28;45258;-78
2022/03/01 00:52:29;;;;;;;;;64.25;48.25;;;;;6.35;54.11;102545.81;2392856;28;46168;-78
2022/03/01 00:53:40;;;;;;;;;61.25;48.50;;;;;6.33;54.15;102542.31;2399336;28;45372;-78
2022/03/01 00:54:50;;;;;;;;;63.00;46.75;;;;;6.32;54.13;102543.19;2393597;28;45358;-78
2022/03/01 00:56:04;;;;;;;;;62.50;49.00;;;;;6.32;54.33;102550.13;2400106;28;45357;-78
2022/03/01 00:57:14;;;;;;;;;67.00;50.75;;;;;6.29;54.60;102545.75;2397192;28;47036;-78
2022/03/01 00:58:24;;;;;;;;;66.25;48.50;;;;;6.26;54.57;102549.19;2402195;28;44639;-78
2022/03/01 00:59:35;;;;;;;;;65.00;52.25;;;;;6.27;54.59;102543.09;2399365;28;45262;-78
2022/03/01 01:00:45;;;;;;;;;65.25;52.00;;;;;6.27;54.62;102553.53;2393539;28;45199;-78
2022/03/01 01:01:55;;;;;;;;;57.50;47.75;;;;;6.26;54.48;102549.19;2393364;28;45741;-78
2022/03/01 01:03:06;;;;;;;;;61.50;50.75;;;;;6.25;54.73;102555.25;2397312;28;45396;-79
2022/03/01 01:04:16;;;;;;;;;66.75;48.50;;;;;6.24;54.56;102550.00;2395431;28;46553;-78
2022/03/01 01:05:27;;;;;;;;;64.50;48.50;;;;;6.24;54.95;102552.63;2393375;28;45135;-78
2022/03/01 01:06:37;;;;;;;;;65.50;51.00;;;;;6.24;54.57;102563.97;2393017;28;45433;-80
2022/03/01 01:07:49;;;;;;;;;64.25;50.50;;;;;6.22;54.64;102556.97;2392698;28;45305;-80
2022/03/01 01:08:59;;;;;;;;;65.25;52.00;;;;;6.22;55.00;102556.97;2392504;28;46830;-79
2022/03/01 01:10:10;;;;;;;;;64.25;49.25;;;;;6.21;54.60;102561.28;2401911;28;44687;-79
2022/03/01 01:11:20;;;;;;;;;60.25;48.00;;;;;6.19;54.87;102563.00;2391902;28;48464;-80
2022/03/01 01:12:32;;;;;;;;;63.75;51.25;;;;;6.18;54.84;102563.84;2385973;28;45243;-80
2022/03/01 01:13:43;;;;;;;;;68.50;52.00;;;;;6.18;54.78;102563.84;2398199;28;45430;-81
2022/03/01 01:14:53;;;;;;;;;65.25;52.50;;;;;6.15;55.23;102554.25;2384131;28;45156;-81
2022/03/01 01:16:04;;;;;;;;;68.75;50.50;;;;;6.15;54.80;102553.38;2388946;28;48205;-81
2022/03/01 01:17:14;;;;;;;;;64.75;50.00;;;;;6.12;55.03;102546.38;2385978;28;44620;-81
2022/03/01 01:18:25;;;;;;;;;70.75;53.25;;;;;6.13;54.77;102549.84;2395136;28;47042;-81
2022/03/01 01:19:36;;;;;;;;;69.25;51.75;;;;;6.10;55.17;102552.44;2399354;28;45448;-81
2022/03/01 01:20:46;;;;;;;;;68.75;52.00;;;;;6.08;55.17;102540.22;2396583;28;45436;-81
2022/03/01 01:23:25;;;;;;;;;69.25;51.25;;;;;6.05;55.14;102537.53;2393056;28;45863;-81
2022/03/01 01:24:36;;;;;;;;;68.25;52.25;;;;;6.05;55.02;102536.66;2393444;28;45396;-81
2022/03/01 01:25:46;;;;;;;;;65.75;50.00;;;;;6.06;55.23;102539.28;2399224;28;46213;-80
2022/03/01 01:26:57;;;;;;;;;63.00;50.25;;;;;6.04;55.31;102535.78;2398103;28;45234;-79
2022/03/01 01:28:07;;;;;;;;;67.50;51.50;;;;;6.02;54.91;102532.28;2396305;28;46444;-79
2022/03/01 01:29:18;;;;;;;;;67.75;52.50;;;;;6.02;55.25;102536.59;2396247;28;45277;-80
2022/03/01 01:30:31;;;;;;;;;63.50;47.75;;;;;6.03;55.51;102533.13;2399728;28;45372;-79
2022/03/01 01:31:42;;;;;;;;;64.50;51.50;;;;;6.00;55.45;102528.75;2396563;28;45226;-80
2022/03/01 01:32:52;;;;;;;;;70.50;51.50;;;;;6.00;55.22;102528.75;2396225;28;45576;-80
2022/03/01 01:34:03;;;;;;;;;65.25;51.50;;;;;6.02;55.54;102531.38;2396457;28;44584;-80
2022/03/01 01:35:15;;;;;;;;;65.50;50.25;;;;;6.02;55.42;102532.28;2396357;28;46637;-80
2022/03/01 01:36:26;;;;;;;;;64.50;51.50;;;;;5.96;55.59;102521.72;2395383;28;45313;-84
2022/03/01 01:37:37;;;;;;;;;67.25;51.25;;;;;6.00;55.43;102527.88;2388596;28;46318;-85
2022/03/01 01:38:47;;;;;;;;;68.00;51.25;;;;;5.97;55.29;102529.56;2398236;28;45442;-87
2022/03/01 01:39:57;;;;;;;;;65.25;51.25;;;;;5.96;55.24;102522.59;2396397;28;48066;-87
2022/03/01 01:41:08;;;;;;;;;69.25;52.25;;;;;5.98;55.53;102525.22;2397761;28;45289;-87
2022/03/01 01:42:18;;;;;;;;;62.00;50.00;;;;;5.96;55.70;102529.56;2395469;28;47135;-84
2022/03/01 01:43:28;;;;;;;;;67.50;51.50;;;;;5.98;55.67;102525.22;2388906;28;45207;-83
2022/03/01 01:44:39;;;;;;;;;63.00;49.25;;;;;5.96;55.78;102521.72;2395710;28;46127;-84
2022/03/01 01:45:49;;;;;;;;;70.75;54.50;;;;;5.97;55.76;102528.72;2396402;28;44825;-85
2022/03/01 01:47:00;;;;;;;;;67.25;52.00;;;;;5.96;55.47;102513.91;2395377;28;47013;-84
2022/03/01 01:48:10;;;;;;;;;67.00;52.25;;;;;5.97;55.67;102519.13;2395525;28;45478;-85
2022/03/01 01:49:20;;;;;;;;;68.25;52.00;;;;;5.99;55.31;102526.13;2396195;28;46057;-85
2022/03/01 01:50:33;;;;;;;;;70.00;53.00;;;;;5.97;55.42;102523.50;2399592;28;45509;-85
2022/03/01 01:51:44;;;;;;;;;64.50;51.00;;;;;5.99;55.53;102531.34;2404665;28;47416;-84
2022/03/01 01:52:55;;;;;;;;;69.50;51.00;;;;;5.98;56.03;102527.84;2402654;28;44760;-84
2022/03/01 01:54:06;;;;;;;;;69.75;50.25;;;;;5.97;56.01;102531.31;2396246;28;45380;-85
2022/03/01 01:55:18;;;;;;;;;68.25;53.00;;;;;5.98;56.17;102530.44;2395524;28;45350;-85
2022/03/01 01:56:29;;;;;;;;;68.25;53.25;;;;;5.96;55.86;102526.94;2405139;28;46441;-85
2022/03/01 01:57:39;;;;;;;;;68.25;51.25;;;;;5.97;55.76;102528.72;2398322;28;45162;-85
2022/03/01 01:58:50;;;;;;;;;70.00;53.25;;;;;5.98;55.64;102530.44;2396136;28;46722;-84
2022/03/01 02:00:01;;;;;;;;;66.50;50.50;;;;;5.98;55.64;102530.44;2396401;28;44690;-84
2022/03/01 02:01:11;;;;;;;;;67.50;50.25;;;;;5.99;55.52;102531.34;2397789;28;45281;-84
2022/03/01 02:02:24;;;;;;;;;65.50;51.25;;;;;6.01;55.74;102532.22;2395463;28;45386;-84
2022/03/01 02:03:35;;;;;;;;;62.25;49.50;;;;;5.97;56.06;102524.34;2395317;28;47578;-84
2022/03/01 02:04:45;;;;;;;;;63.00;50.75;;;;;5.99;55.54;102523.50;2388716;28;45292;-84
2022/03/01 02:05:56;;;;;;;;;63.75;53.00;;;;;5.99;55.79;102532.22;2387691;28;47194;-83
2022/03/01 02:07:07;;;;;;;;;62.75;51.25;;;;;5.99;55.78;102536.56;2395772;28;44707;-83
2022/03/01 02:08:17;;;;;;;;;66.50;51.00;;;;;5.99;55.42;102533.94;2395919;28;46390;-83
2022/03/01 02:09:27;;;;;;;;;62.50;51.00;;;;;6.00;55.86;102541.78;2400283;28;44810;-80
2022/03/01 02:10:38;;;;;;;;;62.50;50.75;;;;;6.01;55.88;102540.94;2395942;28;45487;-80
2022/03/01 02:11:48;;;;;;;;;65.75;52.50;;;;;6.01;55.91;102540.94;2396143;28;45310;-80
2022/03/01 02:12:59;;;;;;;;;62.75;51.50;;;;;6.00;55.96;102540.94;2395797;28;46092;-80
2022/03/01 02:14:09;;;;;;;;;67.75;51.25;;;;;6.00;55.81;102543.53;2414276;28;45427;-80
2022/03/01 02:15:20;;;;;;;;;62.50;49.25;;;;;6.00;55.86;102538.31;2411647;28;47493;-79
2022/03/01 02:16:30;;;;;;;;;61.00;50.50;;;;;6.00;55.79;102539.19;2397631;28;45287;-81
2022/03/01 02:17:42;;;;;;;;;65.50;52.50;;;;;5.97;56.12;102537.41;2396114;28;45403;-80
2022/03/01 02:18:54;;;;;;;;;62.75;51.50;;;;;5.96;55.81;102542.59;2399857;28;45153;-80
2022/03/01 02:20:14;;;;;;;;;68.75;52.75;;;;;5.96;56.07;102543.50;2386238;28;45331;-80
2022/03/01 02:21:24;;;;;;;;;61.75;49.75;;;;;5.96;55.63;102542.59;2392898;28;45265;-81
2022/03/01 02:22:35;;;;;;;;;60.75;47.50;;;;;5.95;56.38;102533.03;2395577;28;46769;-81
2022/03/01 02:23:45;;;;;;;;;66.75;51.75;;;;;5.96;55.86;102537.38;2396208;28;45199;-81
2022/03/01 02:24:56;;;;;;;;;66.50;51.00;;;;;5.94;55.86;102533.88;2395492;28;45303;-83
2022/03/01 02:26:06;;;;;;;;;68.25;51.00;;;;;5.92;56.00;102535.59;2402905;28;45347;-83
2022/03/01 02:27:16;;;;;;;;;66.25;50.50;;;;;5.92;55.74;102536.47;2398742;28;47154;-84
2022/03/01 02:28:27;;;;;;;;;71.75;52.25;;;;;5.91;56.02;102533.81;2402741;28;45159;-83
2022/03/01 02:29:37;;;;;;;;;63.50;49.50;;;;;5.91;55.94;102539.94;2395098;28;48178;-84
2022/03/01 02:30:48;;;;;;;;;69.25;51.75;;;;;5.90;56.16;102545.13;2395586;28;44731;-84
2022/03/01 02:32:03;;;;;;;;;66.50;51.00;;;;;5.91;56.02;102544.25;2395845;28;45355;-83
2022/03/01 02:33:14;;;;;;;;;67.50;50.00;;;;;5.90;56.14;102540.75;2396153;28;45206;-83
2022/03/01 02:34:24;;;;;;;;;66.00;49.25;;;;;5.89;56.28;102540.75;2395928;28;45202;-81
2022/03/01 02:35:35;;;;;;;;;68.25;49.50;;;;;5.90;56.38;102539.91;2395471;28;45711;-81
2022/03/01 02:36:45;;;;;;;;;63.50;51.00;;;;;5.90;56.54;102534.69;2394495;28;47001;-81
2022/03/01 02:37:56;;;;;;;;;60.25;49.25;;;;;5.89;56.09;102535.53;2394013;28;45292;-81
2022/03/01 02:39:06;;;;;;;;;68.75;51.50;;;;;5.89;56.28;102532.91;2396078;28;47891;-81
2022/03/01 02:40:17;;;;;;;;;62.25;49.25;;;;;5.89;56.39;102530.31;2393707;28;45298;-80
2022/03/01 02:41:27;;;;;;;;;62.25;49.75;;;;;5.88;56.13;102528.56;2393982;28;45373;-79
2022/03/01 02:42:39;;;;;;;;;66.25;52.75;;;;;5.89;56.23;102535.53;2393813;28;45239;-79
2022/03/01 02:43:49;;;;;;;;;67.25;50.50;;;;;5.89;56.56;102525.09;2393912;28;46441;-79
2022/03/01 02:45:00;;;;;;;;;69.50;54.00;;;;;5.88;56.47;102524.22;2394428;28;45321;-79
2022/03/01 02:46:11;;;;;;;;;67.25;51.75;;;;;5.88;56.62;102523.34;2395437;28;45301;-79
2022/03/01 02:47:21;;;;;;;;;65.00;50.25;;;;;5.89;56.33;102525.09;2393638;28;45508;-79
2022/03/01 02:48:32;;;;;;;;;64.25;50.25;;;;;5.91;56.48;102528.59;2393831;28;46194;-79
2022/03/01 02:49:42;;;;;;;;;60.50;49.75;;;;;5.91;56.38;102528.59;2393626;28;44628;-79
2022/03/01 02:50:52;;;;;;;;;64.00;50.75;;;;;5.91;56.08;102537.31;2393587;28;45402;-79
2022/03/01 02:52:03;;;;;;;;;66.75;50.50;;;;;5.92;56.47;102528.66;2394463;28;45175;-79
2022/03/01 02:53:13;;;;;;;;;64.00;49.75;;;;;5.93;56.48;102537.31;2393055;28;47182;-79
2022/03/01 02:54:24;;;;;;;;;65.25;50.75;;;;;5.92;56.46;102536.47;2394468;28;45202;-80
2022/03/01 02:55:34;;;;;;;;;62.00;50.00;;;;;5.92;56.30;102530.38;2396536;28;46069;-80
2022/03/01 02:56:45;;;;;;;;;67.25;50.25;;;;;5.92;56.66;102539.09;2394478;28;45227;-79
2022/03/01 02:57:55;;;;;;;;;64.50;49.25;;;;;5.92;56.23;102538.19;2395251;28;46734;-79
2022/03/01 02:59:06;;;;;;;;;60.25;49.25;;;;;5.92;56.37;102535.59;2394380;28;44713;-79
2022/03/01 03:00:17;;;;;;;;;68.25;51.25;;;;;5.92;56.58;102540.81;2393461;28;48138;-83
2022/03/01 03:01:28;;;;;;;;;67.00;50.00;;;;;5.92;56.27;102530.38;2393889;28;45338;-90
2022/03/01 03:02:38;;;;;;;;;68.75;51.00;;;;;5.92;56.43;102528.66;2393593;28;47348;-91
2022/03/01 03:03:49;;;;;;;;;65.75;51.50;;;;;5.93;56.40;102538.22;2393512;28;45553;-89
2022/03/01 03:05:00;;;;;;;;;62.00;50.00;;;;;5.94;56.74;102546.94;2393516;28;47231;-90
2022/03/01 03:06:10;;;;;;;;;64.25;49.75;;;;;5.93;56.71;102545.16;2402496;28;45237;-85
2022/03/01 03:07:20;;;;;;;;;67.00;50.75;;;;;5.92;56.81;102540.81;2397333;28;46617;-86
2022/03/01 03:08:32;;;;;;;;;69.00;51.25;;;;;5.93;56.77;102547.78;2402925;28;44730;-86
2022/03/01 03:09:42;;;;;;;;;66.50;50.50;;;;;5.92;56.90;102546.91;2400357;28;46658;-86
2022/03/01 03:10:53;;;;;;;;;61.00;48.75;;;;;5.92;56.07;102551.25;2394187;28;45353;-86
2022/03/01 03:12:05;;;;;;;;;64.00;51.25;;;;;5.93;56.51;102553.00;2392885;28;48229;-82
2022/03/01 03:13:16;;;;;;;;;65.75;51.25;;;;;5.91;56.85;102550.38;2393668;28;45329;-82
2022/03/01 03:14:26;;;;;;;;;63.00;49.50;;;;;5.94;56.62;102544.31;2393483;28;47731;-82
2022/03/01 03:15:37;;;;;;;;;70.25;51.50;;;;;5.93;56.71;102547.78;2398262;28;45381;-80
2022/03/01 03:16:48;;;;;;;;;63.75;49.25;;;;;5.95;56.56;102551.31;2394156;28;46337;-79
2022/03/01 03:17:58;;;;;;;;;53.50;46.00;;;;;5.95;56.46;102546.09;2394466;28;45312;-79
2022/03/01 03:19:10;;;;;;;;;67.00;52.00;;;;;5.96;56.35;102545.22;2393984;28;45343;-79
2022/03/01 03:20:22;;;;;;;;;64.00;49.75;;;;;5.96;56.36;102548.72;2394178;28;44703;-79
2022/03/01 03:21:32;;;;;;;;;67.75;51.50;;;;;5.96;56.55;102543.50;2393837;28;45298;-79
2022/03/01 03:22:43;;;;;;;;;65.00;52.50;;;;;5.97;56.34;102550.44;2393963;28;45172;-79
2022/03/01 03:23:53;;;;;;;;;63.75;50.25;;;;;5.98;56.08;102546.13;2393291;28;48145;-79
2022/03/01 03:25:04;;;;;;;;;60.00;48.00;;;;;5.99;55.89;102547.00;2388970;28;45452;-79
2022/03/01 03:26:14;;;;;;;;;64.00;49.50;;;;;6.00;56.31;102543.53;2398376;28;46348;-79
2022/03/01 03:27:25;;;;;;;;;62.50;50.50;;;;;6.01;56.40;102540.06;2398712;28;45508;-79
2022/03/01 03:28:35;;;;;;;;;61.75;50.50;;;;;6.01;56.11;102538.34;2393428;28;47995;-79
2022/03/01 03:29:46;;;;;;;;;63.50;49.75;;;;;6.04;56.07;102540.13;2393600;28;45223;-79
2022/03/01 03:30:56;;;;;;;;;59.50;46.50;;;;;6.03;56.06;102536.63;2393990;28;46247;-79
2022/03/01 03:32:07;;;;;;;;;64.00;51.50;;;;;6.06;55.77;102536.69;2393853;28;44668;-80
2022/03/01 03:33:17;;;;;;;;;66.50;50.00;;;;;6.06;56.19;102527.97;2394069;28;45889;-82
2022/03/01 03:34:28;;;;;;;;;62.75;50.00;;;;;6.08;55.70;102535.00;2394048;28;45412;-82
2022/03/01 03:35:38;;;;;;;;;61.00;48.50;;;;;6.07;56.22;102527.16;2402853;28;45340;-84
2022/03/01 03:36:49;;;;;;;;;60.50;45.25;;;;;6.10;56.09;102535.00;2402155;28;45427;-82
2022/03/01 03:37:59;;;;;;;;;57.50;46.75;;;;;6.13;56.43;102542.00;2394073;28;46447;-82
2022/03/01 03:39:11;;;;;;;;;62.25;48.75;;;;;6.12;56.28;102538.53;2393509;28;44756;-87
2022/03/01 03:40:22;;;;;;;;;63.50;50.75;;;;;6.14;56.17;102538.56;2393687;28;45702;-90
2022/03/01 03:41:32;;;;;;;;;59.00;48.25;;;;;6.15;56.02;102537.72;2393587;28;45228;-90
2022/03/01 03:42:45;;;;;;;;;66.00;50.00;;;;;6.16;56.37;102542.06;2393185;28;47149;-91
2022/03/01 03:43:55;;;;;;;;;63.25;50.00;;;;;6.18;56.11;102542.97;2399644;28;45326;-90
2022/03/01 03:45:06;;;;;;;;;68.50;49.75;;;;;6.18;55.99;102543.84;2402031;28;47123;-90
2022/03/01 03:46:16;;;;;;;;;58.75;48.75;;;;;6.18;56.25;102537.75;2393486;28;45409;-91
2022/03/01 03:47:27;;;;;;;;;60.50;48.75;;;;;6.17;56.17;102539.47;2386571;28;47143;-90
2022/03/01 03:48:38;;;;;;;;;59.50;46.75;;;;;6.18;55.98;102533.41;2393462;28;44735;-85
2022/03/01 03:49:49;;;;;;;;;65.75;51.00;;;;;6.20;55.61;102530.81;2393864;28;45523;-86
2022/03/01 03:50:59;;;;;;;;;61.25;48.50;;;;;6.19;56.29;102532.56;2393793;28;44796;-86
2022/03/01 03:52:09;;;;;;;;;63.00;48.50;;;;;6.22;56.00;102525.63;2393917;28;45381;-85
2022/03/01 03:53:20;;;;;;;;;63.25;49.75;;;;;6.23;56.06;102524.75;2394208;28;45256;-86
2022/03/01 03:54:31;;;;;;;;;58.25;47.75;;;;;6.22;55.76;102525.63;2401450;28;45334;-87
2022/03/01 03:55:41;;;;;;;;;62.50;49.75;;;;;6.23;56.23;102528.25;2396519;28;45375;-86
2022/03/01 03:56:51;;;;;;;;;64.75;49.50;;;;;6.23;55.78;102525.63;2393767;28;45665;-86
2022/03/01 03:58:02;;;;;;;;;58.25;47.50;;;;;6.22;56.28;102523.00;2393320;28;45174;-86
2022/03/01 03:59:12;;;;;;;;;63.25;49.00;;;;;6.23;56.17;102530.84;2392970;28;47428;-86
2022/03/01 04:00:23;;;;;;;;;63.50;50.25;;;;;6.24;56.02;102527.41;2393189;28;45897;-87
2022/03/01 04:01:34;;;;;;;;;60.00;47.75;;;;;6.25;55.52;102528.25;2393916;28;45580;-87
2022/03/01 04:02:46;;;;;;;;;61.00;48.50;;;;;6.23;55.75;102527.34;2393954;28;45219;-87
2022/03/01 04:03:58;;;;;;;;;62.50;49.00;;;;;6.22;55.71;102526.50;2393717;28;45412;-86
2022/03/01 04:05:10;;;;;;;;;62.50;48.00;;;;;6.25;55.96;102533.47;2397672;28;45258;-85
2022/03/01 04:06:20;;;;;;;;;66.25;48.75;;;;;6.24;56.01;102526.50;2393032;28;45341;-86
2022/03/01 04:07:30;;;;;;;;;63.75;49.50;;;;;6.25;55.45;102530.88;2393935;28;45269;-85
2022/03/01 04:08:41;;;;;;;;;63.50;49.00;;;;;6.24;56.04;102527.41;2393749;28;46244;-85
2022/03/01 04:09:51;;;;;;;;;61.00;48.50;;;;;6.24;55.41;102521.28;2394026;28;44578;-86
2022/03/01 04:11:02;;;;;;;;;60.25;49.75;;;;;6.25;55.57;102525.63;2392347;28;47179;-85
2022/03/01 04:12:12;;;;;;;;;63.00;50.00;;;;;6.24;55.42;102522.19;2393372;28;44616;-85
2022/03/01 04:13:26;;;;;;;;;63.25;47.50;;;;;6.24;55.63;102516.94;2397020;28;45491;-83
2022/03/01 04:14:37;;;;;;;;;67.00;50.00;;;;;6.24;56.25;102518.69;2393593;28;44792;-83
2022/03/01 04:15:47;;;;;;;;;64.50;50.50;;;;;6.26;55.74;102522.19;2386055;28;48243;-80
2022/03/01 04:16:57;;;;;;;;;65.50;49.25;;;;;6.21;55.57;102519.50;2393259;28;45400;-82
2022/03/01 04:18:08;;;;;;;;;61.50;48.50;;;;;6.24;55.78;102522.19;2393660;28;45287;-82
2022/03/01 04:19:18;;;;;;;;;66.50;50.50;;;;;6.24;55.73;102513.47;2393686;28;45270;-82
2022/03/01 04:20:29;;;;;;;;;63.75;48.75;;;;;6.24;55.61;102519.56;2393171;28;46250;-82
2022/03/01 04:21:40;;;;;;;;;61.50;48.75;;;;;6.21;56.10;102510.78;2393620;28;45443;-82
2022/03/01 04:22:50;;;;;;;;;62.50;48.25;;;;;6.25;56.12;102515.19;2402142;28;48041;-82
2022/03/01 04:24:01;;;;;;;;;61.00;48.50;;;;;6.24;55.75;102511.72;2400021;28;45336;-89
2022/03/01 04:25:11;;;;;;;;;65.50;51.00;;;;;6.24;55.47;102516.06;2393226;28;48165;-88
2022/03/01 04:26:23;;;;;;;;;66.75;49.00;;;;;6.24;55.53;102521.28;2393300;28;45175;-88
2022/03/01 04:27:33;;;;;;;;;64.75;50.25;;;;;6.24;55.77;102516.06;2395318;28;47163;-88
2022/03/01 04:28:44;;;;;;;;;62.50;48.75;;;;;6.24;55.81;102510.84;2393121;28;45236;-88
2022/03/01 04:29:54;;;;;;;;;64.00;49.00;;;;;6.23;55.95;102512.56;2392989;28;46548;-88
2022/03/01 04:31:05;;;;;;;;;62.50;50.00;;;;;6.23;56.02;102509.97;2398364;28;45223;-89
2022/03/01 04:32:15;;;;;;;;;60.00;47.50;;;;;6.23;55.68;102514.31;2400516;28;45329;-89
2022/03/01 04:33:26;;;;;;;;;62.25;49.00;;;;;6.20;56.08;102509.91;2393906;28;44577;-89
2022/03/01 04:34:37;;;;;;;;;63.50;51.00;;;;;6.20;55.86;102512.53;2393507;28;45325;-88
2022/03/01 04:35:47;;;;;;;;;59.50;47.75;;;;;6.22;55.85;102515.19;2392564;28;45350;-87
2022/03/01 04:36:58;;;;;;;;;62.25;48.00;;;;;6.20;56.34;102512.53;2392928;28;45638;-84
2022/03/01 04:38:08;;;;;;;;;65.50;48.00;;;;;6.21;56.16;102516.03;2393445;28;44750;-85
2022/03/01 04:39:18;;;;;;;;;67.25;51.00;;;;;6.18;55.94;102515.13;2392721;28;47211;-84
2022/03/01 04:40:29;;;;;;;;;63.50;50.25;;;;;6.18;56.19;102517.72;2393187;28;45247;-81
2022/03/01 04:41:39;;;;;;;;;69.00;50.50;;;;;6.18;56.04;102517.72;2393667;28;45673;-81
2022/03/01 04:42:50;;;;;;;;;67.00;49.75;;;;;6.19;56.04;102521.22;2393624;28;44665;-81
2022/03/01 04:44:00;;;;;;;;;61.25;46.50;;;;;6.18;55.88;102514.25;2393483;28;46411;-81
2022/03/01 04:45:12;;;;;;;;;63.50;49.50;;;;;6.17;56.33;102515.09;2393770;28;45234;-80
2022/03/01 04:46:22;;;;;;;;;63.75;49.00;;;;;6.19;56.52;102521.22;2393390;28;46178;-80
2022/03/01 04:47:33;;;;;;;;;63.75;50.00;;;;;6.18;56.26;102515.13;2394407;28;45231;-80
2022/03/01 04:48:43;;;;;;;;;62.75;48.75;;;;;6.19;56.50;102518.63;2403011;28;45481;-86
2022/03/01 04:49:53;;;;;;;;;65.50;50.75;;;;;6.17;56.24;102518.56;2393611;28;45286;-85
2022/03/01 04:51:04;;;;;;;;;57.00;46.50;;;;;6.17;56.30;102521.19;2392666;28;45515;-87
2022/03/01 04:52:15;;;;;;;;;64.75;50.50;;;;;6.19;56.02;102519.50;2393564;28;45219;-86
2022/03/01 04:53:25;;;;;;;;;60.50;46.50;;;;;6.18;56.24;102511.63;2393602;28;45388;-87
2022/03/01 04:54:35;;;;;;;;;62.50;49.75;;;;;6.22;55.74;102516.06;2393926;28;45230;-87
2022/03/01 04:55:46;;;;;;;;;62.75;49.00;;;;;6.22;56.26;102509.94;2398039;28;47177;-87
2022/03/01 04:56:56;;;;;;;;;62.75;49.50;;;;;6.23;56.01;102522.13;2401672;28;45285;-80
2022/03/01 04:58:06;;;;;;;;;64.75;50.00;;;;;6.22;55.98;102507.34;2390228;28;45452;-79
2022/03/01 04:59:17;;;;;;;;;63.75;49.25;;;;;6.25;55.84;102521.31;2393589;28;45376;-79
2022/03/01 05:00:27;;;;;;;;;61.00;49.00;;;;;6.23;55.97;102509.97;2392833;28;45419;-79
2022/03/01 05:01:38;;;;;;;;;64.25;49.00;;;;;6.26;55.99;102520.47;2393502;28;45379;-79
2022/03/01 05:02:48;;;;;;;;;61.00;48.25;;;;;6.28;56.03;102517.84;2393305;28;45332;-79
2022/03/01 05:03:59;;;;;;;;;64.25;50.25;;;;;6.28;55.94;102520.47;2393476;28;45320;-80
2022/03/01 05:05:10;;;;;;;;;62.00;47.25;;;;;6.31;56.20;102523.13;2393287;28;46443;-81
2022/03/01 05:06:20;;;;;;;;;63.00;47.00;;;;;6.29;56.56;102523.13;2396909;28;44676;-80
2022/03/01 05:07:31;;;;;;;;;64.00;49.25;;;;;6.33;56.13;102518.81;2398027;28;45321;-79
2022/03/01 05:08:41;;;;;;;;;66.25;50.25;;;;;6.33;55.84;102525.75;2393400;28;45421;-80
2022/03/01 05:09:51;;;;;;;;;61.75;49.75;;;;;6.32;55.89;102518.78;2393526;28;46463;-81
2022/03/01 05:11:02;;;;;;;;;64.50;51.25;;;;;6.33;55.72;102521.41;2393188;28;45365;-80
2022/03/01 05:12:13;;;;;;;;;60.75;48.25;;;;;6.34;56.07;102517.06;2393282;28;45595;-82
2022/03/01 05:13:23;;;;;;;;;63.00;50.00;;;;;6.37;55.84;102517.97;2393297;28;44689;-86
2022/03/01 05:14:34;;;;;;;;;64.25;47.75;;;;;6.38;56.10;102522.34;2395889;28;45219;-87
2022/03/01 05:15:44;;;;;;;;;65.25;51.00;;;;;6.39;55.73;102518.91;2397125;28;45412;-83
2022/03/01 05:16:54;;;;;;;;;58.00;48.25;;;;;6.41;55.76;102514.56;2393376;28;46315;-85
2022/03/01 05:18:05;;;;;;;;;62.00;48.75;;;;;6.43;55.76;102511.97;2393416;28;45309;-80
2022/03/01 05:19:15;;;;;;;;;60.00;47.75;;;;;6.44;55.66;102513.75;2393287;28;45401;-80
2022/03/01 05:20:26;;;;;;;;;64.00;49.75;;;;;6.46;56.02;102517.25;2393325;28;45205;-82
2022/03/01 05:21:37;;;;;;;;;60.50;46.50;;;;;6.47;55.79;102512.91;2393102;28;45339;-83
2022/03/01 05:22:48;;;;;;;;;57.50;46.75;;;;;6.47;55.88;102508.53;2393265;28;45322;-81
2022/03/01 05:23:58;;;;;;;;;60.75;48.75;;;;;6.46;55.46;102503.28;2393304;28;46540;-80
2022/03/01 05:25:12;;;;;;;;;65.75;48.00;;;;;6.49;55.26;102506.84;2395167;28;45226;-80
2022/03/01 05:26:22;;;;;;;;;63.50;49.25;;;;;6.50;55.06;102511.19;2391065;28;46289;-80